Time;durP1;ratioP1;P1;durP2;ratioP2;P2;SDS_P1;SDS_P2;PMS_P1;PMS_P2;Temp;Humidity;BMP_temperature;BMP_pressure;BME280_temperature;BME280_humidity;BME280_pressure;Samples;Min_cycle;Max_cycle;Signal;HPM_P1;HPM_P2
2022/11/16 00:01:14;;;;;;;;;;;21.50;57.50;;;;;;1621428;71;652;-61
2022/11/16 00:03:16;;;;;;;;;;;21.40;57.30;;;;;;1616747;71;689;-61
2022/11/16 00:05:18;;;;;;;;;;;21.50;57.70;;;;;;1626810;71;1121;-61
2022/11/16 00:07:20;;;;;;;;;;;21.40;57.60;;;;;;1628173;73;1941;-61
2022/11/16 00:09:22;;;;;;;;;;;21.50;57.60;;;;;;1625943;73;604;-61
2022/11/16 00:11:24;;;;;;;;;;;21.40;57.40;;;;;;1626494;71;604;-62
2022/11/16 00:13:25;;;;;;;;;;;21.40;57.50;;;;;;1617597;71;768;-61
2022/11/16 00:15:27;;;;;;;;;;;21.50;57.60;;;;;;1619853;72;1179;-61
2022/11/16 00:17:29;;;;;;;;;;;21.50;57.60;;;;;;1621558;71;669;-62
2022/11/16 00:19:31;;;;;;;;;;;21.50;57.60;;;;;;1626089;71;641;-61
2022/11/16 00:21:33;;;;;;;;;;;21.50;57.60;;;;;;1622246;71;697;-62
2022/11/16 00:23:37;;;;;;;;;;;21.50;57.70;;;;;;1624533;72;676;-61
2022/11/16 00:25:39;;;;;;;;;;;21.40;57.50;;;;;;1626297;71;700;-61
2022/11/16 00:27:41;;;;;;;;;;;21.40;57.50;;;;;;1612870;72;1937;-62
2022/11/16 00:29:42;;;;;;;;;;;21.50;57.60;;;;;;1618648;72;716;-61
2022/11/16 00:31:44;;;;;;;;;;;21.50;57.60;;;;;;1623061;71;629;-61
2022/11/16 00:33:46;;;;;;;;;;;21.50;57.50;;;;;;1627424;71;1208;-61
2022/11/16 00:35:48;;;;;;;;;;;21.50;57.60;;;;;;1613880;71;709;-61
2022/11/16 00:37:50;;;;;;;;;;;21.40;57.40;;;;;;1605298;71;739;-61
2022/11/16 00:39:52;;;;;;;;;;;21.40;57.50;;;;;;1615220;71;726;-60
2022/11/16 00:41:54;;;;;;;;;;;21.40;57.50;;;;;;1626432;73;672;-61
2022/11/16 00:43:56;;;;;;;;;;;21.40;57.70;;;;;;1625622;71;1141;-61
2022/11/16 00:45:58;;;;;;;;;;;21.40;57.60;;;;;;1626409;73;1450;-61
2022/11/16 00:48:00;;;;;;;;;;;21.50;57.80;;;;;;1634371;71;1940;-61
2022/11/16 00:50:02;;;;;;;;;;;21.40;57.80;;;;;;1625095;71;671;-61
2022/11/16 00:52:04;;;;;;;;;;;21.40;57.70;;;;;;1614669;71;700;-62
2022/11/16 00:54:06;;;;;;;;;;;21.40;57.70;;;;;;1621287;71;1170;-61
2022/11/16 00:56:08;;;;;;;;;;;21.40;57.50;;;;;;1612731;71;752;-62
2022/11/16 00:58:10;;;;;;;;;;;21.50;57.70;;;;;;1561946;74;634;-61
2022/11/16 01:00:12;;;;;;;;;;;21.50;57.80;;;;;;1593995;73;683;-61
2022/11/16 01:02:14;;;;;;;;;;;21.50;57.60;;;;;;1566090;74;604;-60
2022/11/16 01:04:16;;;;;;;;;;;21.40;57.40;;;;;;1561762;71;2985;-71
2022/11/16 01:06:19;;;;;;;;;;;21.50;57.50;;;;;;1514110;77;650;-72
2022/11/16 01:08:21;;;;;;;;;;;21.50;57.40;;;;;;1502357;77;1913;-71
2022/11/16 01:10:23;;;;;;;;;;;21.40;57.30;;;;;;1498729;77;675;-71
2022/11/16 01:12:25;;;;;;;;;;;21.40;57.30;;;;;;1512772;77;614;-71
2022/11/16 01:14:26;;;;;;;;;;;21.40;57.40;;;;;;1510449;77;1209;-70
2022/11/16 01:16:28;;;;;;;;;;;21.40;57.60;;;;;;1490596;77;772;-69
2022/11/16 01:18:30;;;;;;;;;;;21.40;57.70;;;;;;1496236;77;686;-69
2022/11/16 01:20:32;;;;;;;;;;;21.40;57.60;;;;;;1506376;77;669;-70
2022/11/16 01:22:37;;;;;;;;;;;21.40;57.60;;;;;;1495923;77;686;-70
2022/11/16 01:24:39;;;;;;;;;;;21.40;57.60;;;;;;1497492;77;1128;-71
2022/11/16 01:26:41;;;;;;;;;;;21.30;57.60;;;;;;1498897;77;680;-72
2022/11/16 01:28:43;;;;;;;;;;;21.40;57.70;;;;;;1501000;77;1946;-71
2022/11/16 01:30:46;;;;;;;;;;;21.40;57.70;;;;;;1509990;77;674;-71
2022/11/16 01:32:48;;;;;;;;;;;21.40;57.70;;;;;;1508221;78;669;-72
2022/11/16 01:34:50;;;;;;;;;;;21.50;57.70;;;;;;1496415;77;1230;-71
2022/11/16 01:36:52;;;;;;;;;;;21.40;57.80;;;;;;1515948;77;661;-73
2022/11/16 01:38:54;;;;;;;;;;;21.30;58.00;;;;;;1512669;77;670;-72
2022/11/16 01:40:56;;;;;;;;;;;21.30;58.40;;;;;;1507932;77;777;-71
2022/11/16 01:42:58;;;;;;;;;;;21.30;58.50;;;;;;1505454;77;1539;-70
2022/11/16 01:45:01;;;;;;;;;;;21.30;58.70;;;;;;1524350;77;1174;-72
2022/11/16 01:47:05;;;;;;;;;;;21.20;58.60;;;;;;1522721;77;1518;-71
2022/11/16 01:49:11;;;;;;;;;;;21.20;58.60;;;;;;1508649;77;1930;-71
2022/11/16 01:51:13;;;;;;;;;;;21.20;58.70;;;;;;1506575;77;1782;-73
2022/11/16 01:53:15;;;;;;;;;;;21.20;58.80;;;;;;1515379;77;653;-71
2022/11/16 01:55:17;;;;;;;;;;;21.20;58.80;;;;;;1513904;77;1173;-70
2022/11/16 01:57:23;;;;;;;;;;;21.20;58.90;;;;;;1512949;78;688;-72
2022/11/16 01:59:25;;;;;;;;;;;21.10;58.90;;;;;;1513138;77;1035;-70
2022/11/16 02:01:27;;;;;;;;;;;21.20;59.00;;;;;;1517779;78;619;-71
2022/11/16 02:03:29;;;;;;;;;;;21.10;59.10;;;;;;1519748;77;937;-71
2022/11/16 02:05:32;;;;;;;;;;;21.20;59.10;;;;;;1508736;77;1140;-71
2022/11/16 02:10:14;;;;;;;;;;;21.10;59.30;;;;;;1487858;77;668;-70
2022/11/16 02:12:36;;;;;;;;;;;21.00;59.20;;;;;;1506586;77;1724;-69
2022/11/16 02:14:49;;;;;;;;;;;21.10;59.30;;;;;;1501283;77;1162;-70
2022/11/16 02:16:52;;;;;;;;;;;21.10;59.30;;;;;;1509838;77;1894;-70
2022/11/16 02:18:56;;;;;;;;;;;21.10;59.30;;;;;;1499340;77;783;-70
2022/11/16 02:20:59;;;;;;;;;;;21.10;59.40;;;;;;1455641;79;1071;-70
2022/11/16 02:23:06;;;;;;;;;;;21.00;59.30;;;;;;1497181;77;680;-71
2022/11/16 02:25:19;;;;;;;;;;;21.20;59.40;;;;;;1495117;78;1161;-71
2022/11/16 02:27:31;;;;;;;;;;;21.10;59.20;;;;;;1496117;77;1495;-70
2022/11/16 02:29:37;;;;;;;;;;;21.10;59.20;;;;;;1505592;77;1168;-70
2022/11/16 02:31:40;;;;;;;;;;;21.10;59.30;;;;;;1499518;77;2112;-70
2022/11/16 02:33:42;;;;;;;;;;;21.20;59.20;;;;;;1507252;77;748;-71
2022/11/16 02:35:48;;;;;;;;;;;21.10;59.10;;;;;;1507440;77;1171;-71
2022/11/16 02:37:51;;;;;;;;;;;21.10;59.20;;;;;;1501139;77;715;-72
2022/11/16 02:39:54;;;;;;;;;;;21.20;59.10;;;;;;1504752;77;1458;-68
2022/11/16 02:41:56;;;;;;;;;;;21.20;59.20;;;;;;1498239;77;697;-71
2022/11/16 02:44:02;;;;;;;;;;;21.20;59.20;;;;;;1494344;77;1138;-69
2022/11/16 02:46:05;;;;;;;;;;;21.20;59.10;;;;;;1498213;79;719;-72
2022/11/16 02:48:08;;;;;;;;;;;21.20;59.10;;;;;;1498084;77;1941;-70
2022/11/16 02:50:11;;;;;;;;;;;21.20;59.20;;;;;;1502118;77;1070;-70
2022/11/16 02:52:13;;;;;;;;;;;21.30;59.30;;;;;;1512246;77;641;-70
2022/11/16 02:54:15;;;;;;;;;;;21.20;59.10;;;;;;1494177;77;1136;-70
2022/11/16 02:56:17;;;;;;;;;;;21.30;59.20;;;;;;1500028;77;769;-70
2022/11/16 02:58:22;;;;;;;;;;;21.20;59.00;;;;;;1496361;77;719;-71
2022/11/16 03:00:32;;;;;;;;;;;21.20;59.10;;;;;;1504555;77;744;-71
2022/11/16 03:02:38;;;;;;;;;;;21.20;59.20;;;;;;1476850;77;1136;-72
2022/11/16 03:04:41;;;;;;;;;;;21.20;59.30;;;;;;1497157;77;2098;-71
2022/11/16 03:06:43;;;;;;;;;;;21.20;59.30;;;;;;1494674;77;789;-72
2022/11/16 03:08:46;;;;;;;;;;;21.20;59.30;;;;;;1500158;77;1937;-70
2022/11/16 03:13:13;;;;;;;;;;;21.20;59.40;;;;;;1493595;78;655;-71
2022/11/16 03:15:14;;;;;;;;;;;21.10;59.40;;;;;;1513285;77;1159;-70
2022/11/16 03:17:29;;;;;;;;;;;21.20;59.40;;;;;;1497584;77;659;-70
2022/11/16 03:19:39;;;;;;;;;;;21.20;59.40;;;;;;1503687;77;639;-71
2022/11/16 03:21:45;;;;;;;;;;;21.10;59.30;;;;;;1497688;77;663;-72
2022/11/16 03:23:47;;;;;;;;;;;21.10;59.30;;;;;;1509476;77;682;-71
2022/11/16 03:25:50;;;;;;;;;;;21.20;59.30;;;;;;1503117;77;1112;-70
2022/11/16 03:28:10;;;;;;;;;;;21.20;59.30;;;;;;1493966;77;1941;-71
2022/11/16 03:30:19;;;;;;;;;;;21.20;59.30;;;;;;1492257;77;645;-70
2022/11/16 03:32:23;;;;;;;;;;;21.20;59.40;;;;;;1508847;77;987;-70
2022/11/16 03:34:25;;;;;;;;;;;21.20;59.40;;;;;;1507826;77;2068;-71
2022/11/16 03:36:29;;;;;;;;;;;21.10;59.40;;;;;;1506718;77;1541;-70
2022/11/16 03:38:30;;;;;;;;;;;21.20;59.50;;;;;;1507055;77;749;-71
2022/11/16 03:40:33;;;;;;;;;;;21.10;59.50;;;;;;1495604;77;706;-70
2022/11/16 03:42:35;;;;;;;;;;;21.20;59.60;;;;;;1496117;77;635;-71
2022/11/16 03:44:37;;;;;;;;;;;21.20;59.60;;;;;;1497813;78;1218;-70
2022/11/16 03:46:40;;;;;;;;;;;21.10;59.80;;;;;;1499184;77;656;-71
2022/11/16 03:48:41;;;;;;;;;;;21.20;59.70;;;;;;1506551;77;1943;-74
2022/11/16 03:50:43;;;;;;;;;;;21.20;59.60;;;;;;1505004;77;765;-71
2022/11/16 03:52:45;;;;;;;;;;;21.20;59.60;;;;;;1498922;78;697;-72
2022/11/16 03:54:47;;;;;;;;;;;21.10;59.50;;;;;;1501463;78;1144;-72
2022/11/16 03:56:49;;;;;;;;;;;21.20;59.50;;;;;;1503925;77;658;-72
2022/11/16 03:58:51;;;;;;;;;;;21.20;59.30;;;;;;1495077;77;785;-72
2022/11/16 04:00:53;;;;;;;;;;;21.20;59.30;;;;;;1502053;77;685;-71
2022/11/16 04:02:55;;;;;;;;;;;21.30;59.30;;;;;;1506988;77;669;-71
2022/11/16 04:26:00;;;;;;;;;;;21.20;59.40;;;;;;1507078;77;1654;-70
2022/11/16 04:28:15;;;;;;;;;;;21.20;59.40;;;;;;1504470;77;1933;-72
2022/11/16 04:30:17;;;;;;;;;;;21.20;59.40;;;;;;1501961;77;657;-71
2022/11/16 04:39:18;;;;;;;;;;;21.20;59.30;;;;;;1493596;77;1646;-68
2022/11/16 04:43:39;;;;;;;;;;;21.20;59.50;;;;;;1493810;77;1631;-71
2022/11/16 04:48:01;;;;;;;;;;;21.20;59.40;;;;;;1497597;77;1638;-70
2022/11/16 04:50:03;;;;;;;;;;;21.30;59.40;;;;;;1503870;77;1935;-70
2022/11/16 04:52:05;;;;;;;;;;;21.30;59.40;;;;;;1494203;77;666;-71
2022/11/16 04:54:07;;;;;;;;;;;21.30;59.50;;;;;;1497890;77;1166;-70
2022/11/16 04:56:11;;;;;;;;;;;21.30;59.50;;;;;;1501122;77;690;-70
2022/11/16 04:58:13;;;;;;;;;;;21.30;59.50;;;;;;1497747;77;656;-70
2022/11/16 05:00:15;;;;;;;;;;;21.30;59.40;;;;;;1497646;78;906;-70
2022/11/16 05:02:17;;;;;;;;;;;21.30;59.60;;;;;;1504094;77;729;-70
2022/11/16 05:04:18;;;;;;;;;;;21.30;59.70;;;;;;1497804;77;1149;-70
2022/11/16 05:06:20;;;;;;;;;;;21.20;59.70;;;;;;1505301;77;754;-72
2022/11/16 05:08:24;;;;;;;;;;;21.20;59.70;;;;;;1500601;77;1942;-71
2022/11/16 05:10:26;;;;;;;;;;;21.20;59.70;;;;;;1499360;77;695;-70
2022/11/16 05:12:28;;;;;;;;;;;21.30;59.70;;;;;;1502271;77;647;-72
2022/11/16 05:14:29;;;;;;;;;;;21.20;59.50;;;;;;1497347;77;1086;-70
2022/11/16 05:16:32;;;;;;;;;;;21.30;59.70;;;;;;1500678;77;679;-70
2022/11/16 05:18:34;;;;;;;;;;;21.20;59.70;;;;;;1497731;77;707;-70
2022/11/16 05:22:55;;;;;;;;;;;21.10;60.00;;;;;;1501301;77;1654;-71
2022/11/16 05:24:57;;;;;;;;;;;21.10;60.00;;;;;;1496600;77;1116;-72
2022/11/16 05:27:03;;;;;;;;;;;21.00;59.90;;;;;;1501450;77;730;-69
2022/11/16 05:29:04;;;;;;;;;;;21.10;60.10;;;;;;1510991;78;1934;-70
2022/11/16 05:31:06;;;;;;;;;;;21.10;60.10;;;;;;1499006;77;677;-69
2022/11/16 05:33:08;;;;;;;;;;;21.10;60.30;;;;;;1503635;78;677;-70
2022/11/16 05:35:10;;;;;;;;;;;21.10;60.30;;;;;;1500338;77;1150;-68
2022/11/16 05:37:12;;;;;;;;;;;21.00;60.20;;;;;;1506387;77;726;-70
2022/11/16 05:39:14;;;;;;;;;;;21.00;60.30;;;;;;1509728;77;735;-70
2022/11/16 05:41:16;;;;;;;;;;;21.00;60.30;;;;;;1506102;77;749;-70
2022/11/16 05:43:17;;;;;;;;;;;21.10;60.30;;;;;;1509182;77;767;-66
2022/11/16 05:45:19;;;;;;;;;;;21.00;60.30;;;;;;1539430;76;1176;-71
2022/11/16 05:47:21;;;;;;;;;;;21.10;60.30;;;;;;1527632;76;688;-69
2022/11/16 05:49:23;;;;;;;;;;;21.10;60.30;;;;;;1538478;76;1933;-70
2022/11/16 05:51:25;;;;;;;;;;;21.10;60.30;;;;;;1541317;76;765;-69
2022/11/16 05:53:27;;;;;;;;;;;21.10;60.30;;;;;;1547296;76;663;-69
2022/11/16 05:55:29;;;;;;;;;;;21.10;60.30;;;;;;1537234;76;1142;-70
2022/11/16 05:57:31;;;;;;;;;;;21.10;60.30;;;;;;1535380;75;677;-70
2022/11/16 05:59:32;;;;;;;;;;;21.10;60.30;;;;;;1534982;76;647;-69
2022/11/16 06:01:34;;;;;;;;;;;21.10;60.30;;;;;;1544324;76;745;-70
2022/11/16 06:03:36;;;;;;;;;;;21.00;60.20;;;;;;1539900;76;766;-70
2022/11/16 06:05:38;;;;;;;;;;;21.20;60.20;;;;;;1541631;76;1123;-70
2022/11/16 06:07:40;;;;;;;;;;;21.10;60.20;;;;;;1534116;76;807;-70
2022/11/16 06:09:42;;;;;;;;;;;21.20;60.20;;;;;;1532884;76;1936;-70
2022/11/16 06:11:44;;;;;;;;;;;21.10;60.30;;;;;;1533670;76;690;-71
2022/11/16 06:13:46;;;;;;;;;;;21.10;60.40;;;;;;1526035;76;680;-70
2022/11/16 06:15:48;;;;;;;;;;;21.10;60.20;;;;;;1528090;76;1140;-68
2022/11/16 06:17:50;;;;;;;;;;;21.20;60.30;;;;;;1533960;76;709;-68
2022/11/16 06:19:52;;;;;;;;;;;21.20;60.30;;;;;;1528849;76;698;-65
2022/11/16 06:21:53;;;;;;;;;;;21.20;60.60;;;;;;1527249;76;765;-64
2022/11/16 06:23:55;;;;;;;;;;;21.20;60.60;;;;;;1529641;76;1563;-65
2022/11/16 06:25:57;;;;;;;;;;;21.20;60.30;;;;;;1538144;76;1159;-65
2022/11/16 06:27:59;;;;;;;;;;;21.30;60.00;;;;;;1527774;76;761;-66
2022/11/16 06:30:01;;;;;;;;;;;21.40;59.60;;;;;;1539385;76;1948;-66
2022/11/16 06:32:03;;;;;;;;;;;21.50;59.40;;;;;;1543120;76;773;-68
2022/11/16 06:34:05;;;;;;;;;;;21.60;59.10;;;;;;1533090;76;1143;-66
2022/11/16 06:36:07;;;;;;;;;;;21.60;58.90;;;;;;1538301;76;695;-65
2022/11/16 06:38:09;;;;;;;;;;;21.60;58.80;;;;;;1535623;76;785;-65
2022/11/16 06:40:11;;;;;;;;;;;21.70;58.70;;;;;;1537744;76;702;-65
2022/11/16 06:42:13;;;;;;;;;;;21.60;58.80;;;;;;1517815;76;762;-65
2022/11/16 06:44:15;;;;;;;;;;;21.70;59.10;;;;;;1534693;76;1179;-68
2022/11/16 06:46:16;;;;;;;;;;;21.70;59.20;;;;;;1535974;76;654;-65
2022/11/16 06:48:18;;;;;;;;;;;21.70;59.30;;;;;;1526409;76;787;-68
2022/11/16 06:50:20;;;;;;;;;;;21.60;59.30;;;;;;1532013;76;1928;-63
2022/11/16 06:52:22;;;;;;;;;;;21.60;60.00;;;;;;1540546;76;694;-66
2022/11/16 06:54:24;;;;;;;;;;;21.60;60.00;;;;;;1539757;76;1256;-65
2022/11/16 06:56:26;;;;;;;;;;;21.70;59.80;;;;;;1535543;76;742;-63
2022/11/16 06:58:29;;;;;;;;;;;21.70;59.30;;;;;;1533791;76;641;-63
2022/11/16 07:00:31;;;;;;;;;;;21.70;59.40;;;;;;1532956;76;683;-69
2022/11/16 07:02:33;;;;;;;;;;;21.80;59.40;;;;;;1522037;76;763;-62
2022/11/16 07:04:35;;;;;;;;;;;21.70;59.20;;;;;;1540699;70;2095;-73
2022/11/16 07:06:37;;;;;;;;;;;21.80;59.10;;;;;;1583819;73;702;-66
2022/11/16 07:08:39;;;;;;;;;;;21.80;58.60;;;;;;1578768;74;644;-67
2022/11/16 07:10:41;;;;;;;;;;;21.70;58.60;;;;;;1576575;74;1930;-66
2022/11/16 07:12:43;;;;;;;;;;;21.80;58.60;;;;;;1567784;74;732;-66
2022/11/16 07:14:45;;;;;;;;;;;21.80;58.60;;;;;;1587041;73;1210;-67
2022/11/16 07:16:47;;;;;;;;;;;21.80;58.60;;;;;;1575625;74;633;-67
2022/11/16 07:18:49;;;;;;;;;;;21.80;58.50;;;;;;1570512;74;764;-67
2022/11/16 07:20:51;;;;;;;;;;;21.80;58.20;;;;;;1581845;74;1561;-66
2022/11/16 07:22:53;;;;;;;;;;;21.90;58.30;;;;;;1571977;74;760;-67
2022/11/16 07:24:55;;;;;;;;;;;21.80;58.10;;;;;;1512536;77;1092;-66
2022/11/16 07:26:57;;;;;;;;;;;21.80;58.20;;;;;;1531202;76;628;-66
2022/11/16 07:28:59;;;;;;;;;;;21.80;58.20;;;;;;1519609;77;696;-67
2022/11/16 07:31:01;;;;;;;;;;;21.80;58.10;;;;;;1547674;75;1930;-67
2022/11/16 07:33:03;;;;;;;;;;;21.80;58.10;;;;;;1525985;76;795;-66
2022/11/16 07:35:05;;;;;;;;;;;21.80;58.10;;;;;;1530731;76;1145;-66
2022/11/16 07:37:07;;;;;;;;;;;21.80;58.10;;;;;;1525009;76;690;-66
2022/11/16 07:39:09;;;;;;;;;;;21.80;58.00;;;;;;1527916;76;697;-67
2022/11/16 07:41:15;;;;;;;;;;;21.80;58.00;;;;;;1515932;77;727;-66
2022/11/16 07:43:17;;;;;;;;;;;21.80;57.90;;;;;;1534278;76;914;-68
2022/11/16 07:45:19;;;;;;;;;;;21.80;57.90;;;;;;1546760;75;1184;-69
2022/11/16 07:47:20;;;;;;;;;;;21.80;57.80;;;;;;1519095;77;698;-67
2022/11/16 07:49:22;;;;;;;;;;;21.80;57.80;;;;;;1546056;75;1943;-67
2022/11/16 07:51:24;;;;;;;;;;;21.80;57.80;;;;;;1504678;77;707;-67
2022/11/16 07:53:26;;;;;;;;;;;21.80;57.70;;;;;;1534200;76;739;-67
2022/11/16 07:55:31;;;;;;;;;;;21.90;57.80;;;;;;1523367;76;1150;-67
2022/11/16 07:57:31;;;;;;;;;;;21.90;57.80;;;;;;1525894;76;1629;-67
2022/11/16 07:59:33;;;;;;;;;;;21.80;57.60;;;;;;1531259;76;669;-65
2022/11/16 08:01:35;;;;;;;;;;;21.80;57.60;;;;;;1527823;77;694;-66
2022/11/16 08:03:37;;;;;;;;;;;21.80;57.60;;;;;;1527405;77;619;-66
2022/11/16 08:05:39;;;;;;;;;;;21.80;57.50;;;;;;1526231;77;1136;-67
2022/11/16 08:07:41;;;;;;;;;;;21.80;57.50;;;;;;1523973;76;706;-66
2022/11/16 08:09:43;;;;;;;;;;;21.90;57.60;;;;;;1523837;76;1940;-66
2022/11/16 08:11:46;;;;;;;;;;;21.80;57.40;;;;;;1539171;76;729;-66
2022/11/16 08:13:47;;;;;;;;;;;21.90;57.60;;;;;;1539603;76;581;-66
2022/11/16 08:15:49;;;;;;;;;;;21.90;57.60;;;;;;1547700;76;1141;-66
2022/11/16 08:17:51;;;;;;;;;;;21.80;57.40;;;;;;1532210;76;1512;-66
2022/11/16 08:19:53;;;;;;;;;;;21.80;57.40;;;;;;1526782;76;689;-65
2022/11/16 08:21:55;;;;;;;;;;;21.80;57.40;;;;;;1525870;76;683;-66
2022/11/16 08:23:57;;;;;;;;;;;21.80;57.30;;;;;;1530578;76;664;-66
2022/11/16 08:25:59;;;;;;;;;;;21.80;57.30;;;;;;1533831;76;1082;-65
2022/11/16 08:28:01;;;;;;;;;;;21.90;57.40;;;;;;1532325;76;614;-66
2022/11/16 08:30:08;;;;;;;;;;;21.90;57.40;;;;;;1529751;76;1930;-66
2022/11/16 08:32:07;;;;;;;;;;;21.80;57.30;;;;;;1530359;77;1124;-66
2022/11/16 08:34:09;;;;;;;;;;;21.80;57.30;;;;;;1523984;76;623;-67
2022/11/16 08:36:17;;;;;;;;;;;21.90;57.40;;;;;;1539748;76;1102;-66
2022/11/16 08:38:19;;;;;;;;;;;21.80;57.30;;;;;;1514623;76;707;-68
2022/11/16 08:40:21;;;;;;;;;;;21.80;57.20;;;;;;1524437;76;682;-67
2022/11/16 08:42:23;;;;;;;;;;;21.80;57.20;;;;;;1524755;76;664;-68
2022/11/16 08:44:25;;;;;;;;;;;21.80;57.20;;;;;;1527332;76;618;-67
2022/11/16 08:46:26;;;;;;;;;;;21.80;57.20;;;;;;1534919;76;757;-68
2022/11/16 08:48:28;;;;;;;;;;;21.80;57.20;;;;;;1518635;76;736;-67
2022/11/16 08:50:30;;;;;;;;;;;21.80;57.10;;;;;;1532451;76;1932;-68
2022/11/16 08:52:32;;;;;;;;;;;21.90;57.30;;;;;;1521909;76;730;-68
2022/11/16 08:54:34;;;;;;;;;;;21.80;57.10;;;;;;1533831;76;1160;-68
2022/11/16 08:56:36;;;;;;;;;;;21.90;57.20;;;;;;1532545;77;656;-67
2022/11/16 08:58:38;;;;;;;;;;;21.90;57.20;;;;;;1521797;76;649;-67
2022/11/16 09:00:40;;;;;;;;;;;21.80;57.10;;;;;;1523456;76;647;-65
2022/11/16 09:02:42;;;;;;;;;;;21.80;57.10;;;;;;1517757;77;718;-68
2022/11/16 09:04:44;;;;;;;;;;;21.90;57.20;;;;;;1527813;76;1143;-67
2022/11/16 09:06:46;;;;;;;;;;;21.90;57.10;;;;;;1524609;76;810;-68
2022/11/16 09:08:47;;;;;;;;;;;21.80;57.10;;;;;;1532578;76;699;-68
2022/11/16 09:10:49;;;;;;;;;;;21.80;57.10;;;;;;1522420;76;1995;-67
2022/11/16 09:12:51;;;;;;;;;;;21.80;57.00;;;;;;1532396;76;1437;-67
2022/11/16 09:14:53;;;;;;;;;;;21.90;57.20;;;;;;1538740;76;1111;-68
2022/11/16 09:16:55;;;;;;;;;;;21.90;57.10;;;;;;1522836;77;673;-67
2022/11/16 09:18:57;;;;;;;;;;;21.80;57.00;;;;;;1540028;76;671;-67
2022/11/16 09:20:59;;;;;;;;;;;21.80;57.10;;;;;;1537332;76;678;-67
2022/11/16 09:23:01;;;;;;;;;;;21.80;57.10;;;;;;1516715;76;684;-68
2022/11/16 09:25:03;;;;;;;;;;;21.80;57.00;;;;;;1524450;76;1124;-68
2022/11/16 09:27:05;;;;;;;;;;;21.90;57.10;;;;;;1530710;76;661;-68
2022/11/16 09:29:07;;;;;;;;;;;21.80;57.00;;;;;;1531404;76;665;-67
2022/11/16 09:31:09;;;;;;;;;;;21.90;57.10;;;;;;1540637;76;1947;-67
2022/11/16 09:33:12;;;;;;;;;;;21.90;57.10;;;;;;1541003;76;657;-67
2022/11/16 09:35:14;;;;;;;;;;;21.80;56.90;;;;;;1542815;76;1190;-67
2022/11/16 09:37:16;;;;;;;;;;;21.80;57.00;;;;;;1533850;76;677;-68
2022/11/16 09:39:17;;;;;;;;;;;21.90;57.10;;;;;;1512943;76;736;-68
2022/11/16 09:41:30;;;;;;;;;;;21.80;56.90;;;;;;1527737;76;663;-68
2022/11/16 09:43:52;;;;;;;;;;;21.80;56.90;;;;;;1537157;76;615;-67
2022/11/16 09:46:11;;;;;;;;;;;21.80;56.90;;;;;;1536182;75;2018;-66
2022/11/16 09:48:14;;;;;;;;;;;21.80;56.90;;;;;;1515031;77;687;-66
2022/11/16 09:50:17;;;;;;;;;;;21.80;57.00;;;;;;1525441;76;1908;-66
2022/11/16 09:52:26;;;;;;;;;;;21.80;56.90;;;;;;1523959;76;933;-66
2022/11/16 09:54:29;;;;;;;;;;;21.80;57.00;;;;;;1523820;76;1130;-66
2022/11/16 09:56:34;;;;;;;;;;;21.80;57.00;;;;;;1538849;76;705;-66
2022/11/16 09:58:42;;;;;;;;;;;21.80;57.00;;;;;;1529134;76;1600;-66
2022/11/16 10:00:46;;;;;;;;;;;21.80;56.90;;;;;;1532381;76;744;-66
2022/11/16 10:02:50;;;;;;;;;;;21.80;56.90;;;;;;1538280;76;698;-66
2022/11/16 10:05:11;;;;;;;;;;;21.80;56.90;;;;;;1530874;76;1141;-68
2022/11/16 10:07:16;;;;;;;;;;;21.80;56.80;;;;;;1523856;76;962;-66
2022/11/16 10:09:18;;;;;;;;;;;21.80;56.80;;;;;;1527656;76;1530;-67
2022/11/16 10:11:37;;;;;;;;;;;21.80;56.90;;;;;;1530151;76;1937;-66
2022/11/16 10:13:40;;;;;;;;;;;21.80;56.90;;;;;;1531996;77;639;-66
2022/11/16 10:15:47;;;;;;;;;;;21.80;56.80;;;;;;1535307;76;1875;-68
2022/11/16 10:17:53;;;;;;;;;;;21.70;56.90;;;;;;1538901;76;734;-68
2022/11/16 10:20:03;;;;;;;;;;;21.80;56.90;;;;;;1530386;76;695;-67
2022/11/16 10:22:16;;;;;;;;;;;21.80;56.90;;;;;;1523401;77;1114;-68
2022/11/16 10:24:36;;;;;;;;;;;21.80;56.90;;;;;;1527073;77;1025;-66
2022/11/16 10:26:42;;;;;;;;;;;21.80;56.90;;;;;;1521050;76;682;-68
2022/11/16 10:28:51;;;;;;;;;;;21.80;56.80;;;;;;1521785;76;1205;-68
2022/11/16 10:31:01;;;;;;;;;;;21.80;56.90;;;;;;1528344;77;1940;-67
2022/11/16 10:33:13;;;;;;;;;;;21.80;56.90;;;;;;1530916;77;1435;-69
2022/11/16 10:35:16;;;;;;;;;;;21.80;56.90;;;;;;1516450;77;1242;-68
2022/11/16 10:37:18;;;;;;;;;;;21.80;56.90;;;;;;1515383;76;631;-68
2022/11/16 10:39:19;;;;;;;;;;;21.80;57.00;;;;;;1531994;77;689;-69
2022/11/16 10:41:32;;;;;;;;;;;21.80;56.90;;;;;;1532943;76;687;-69
2022/11/16 10:43:34;;;;;;;;;;;21.80;56.80;;;;;;1523708;76;733;-66
2022/11/16 10:45:41;;;;;;;;;;;21.80;56.90;;;;;;1526126;77;1159;-67
2022/11/16 10:47:45;;;;;;;;;;;21.80;56.80;;;;;;1527015;76;583;-67
2022/11/16 10:49:57;;;;;;;;;;;21.80;56.80;;;;;;1541979;76;1600;-68
2022/11/16 10:51:59;;;;;;;;;;;21.80;56.80;;;;;;1529262;76;1939;-67
2022/11/16 10:54:02;;;;;;;;;;;21.80;56.80;;;;;;1507063;76;690;-67
2022/11/16 10:56:14;;;;;;;;;;;21.80;56.80;;;;;;1539064;76;1181;-67
2022/11/16 10:58:16;;;;;;;;;;;21.80;56.80;;;;;;1516337;76;566;-67
2022/11/16 11:00:19;;;;;;;;;;;21.80;56.80;;;;;;1527435;76;708;-67
2022/11/16 11:02:30;;;;;;;;;;;21.80;56.80;;;;;;1538520;76;997;-67
2022/11/16 11:04:32;;;;;;;;;;;21.80;56.70;;;;;;1529583;76;1131;-67
2022/11/16 11:06:34;;;;;;;;;;;21.80;56.70;;;;;;1530247;76;1680;-67
2022/11/16 11:08:35;;;;;;;;;;;21.80;56.80;;;;;;1518626;76;766;-68
2022/11/16 11:10:38;;;;;;;;;;;21.80;56.70;;;;;;1522097;76;1930;-67
2022/11/16 11:12:40;;;;;;;;;;;21.80;56.70;;;;;;1534142;76;571;-67
2022/11/16 11:14:42;;;;;;;;;;;21.80;56.70;;;;;;1537102;76;1181;-67
2022/11/16 11:16:44;;;;;;;;;;;21.80;56.60;;;;;;1535478;76;712;-67
2022/11/16 11:18:46;;;;;;;;;;;21.80;56.60;;;;;;1531223;76;760;-67
2022/11/16 11:20:49;;;;;;;;;;;21.80;56.50;;;;;;1546095;76;671;-68
2022/11/16 11:22:57;;;;;;;;;;;21.90;56.60;;;;;;1527706;76;698;-68
2022/11/16 11:25:00;;;;;;;;;;;21.80;56.50;;;;;;1530624;77;1163;-67
2022/11/16 11:27:02;;;;;;;;;;;21.80;56.50;;;;;;1527507;76;685;-68
2022/11/16 11:29:08;;;;;;;;;;;21.80;56.50;;;;;;1532373;76;673;-67
2022/11/16 11:31:24;;;;;;;;;;;21.80;56.50;;;;;;1523710;77;1928;-67
2022/11/16 11:33:25;;;;;;;;;;;21.80;56.50;;;;;;1523487;77;1680;-66
2022/11/16 11:35:30;;;;;;;;;;;21.80;56.50;;;;;;1529975;76;1146;-67
2022/11/16 11:37:33;;;;;;;;;;;21.80;56.50;;;;;;1518183;76;681;-68
2022/11/16 11:39:35;;;;;;;;;;;21.80;56.50;;;;;;1546956;76;727;-67
2022/11/16 11:41:39;;;;;;;;;;;21.80;56.40;;;;;;1536761;76;609;-68
2022/11/16 11:43:41;;;;;;;;;;;21.90;56.50;;;;;;1532449;76;1512;-67
2022/11/16 11:45:47;;;;;;;;;;;21.90;56.50;;;;;;1543376;75;1140;-67
2022/11/16 11:47:59;;;;;;;;;;;21.90;56.50;;;;;;1523392;77;1390;-68
2022/11/16 11:50:03;;;;;;;;;;;21.90;56.50;;;;;;1536059;76;591;-67
2022/11/16 11:52:06;;;;;;;;;;;21.80;56.50;;;;;;1528435;76;1944;-68
2022/11/16 11:54:10;;;;;;;;;;;21.80;56.40;;;;;;1530501;76;1718;-68
2022/11/16 11:56:12;;;;;;;;;;;21.80;56.30;;;;;;1509775;77;1538;-67
2022/11/16 11:58:14;;;;;;;;;;;21.80;56.30;;;;;;1527015;76;693;-67
2022/11/16 12:00:17;;;;;;;;;;;21.80;56.30;;;;;;1531412;76;691;-67
2022/11/16 12:02:26;;;;;;;;;;;21.90;56.50;;;;;;1533628;76;1472;-66
2022/11/16 12:04:46;;;;;;;;;;;21.90;56.40;;;;;;1522550;76;1569;-68
2022/11/16 12:06:56;;;;;;;;;;;21.90;56.50;;;;;;1534887;76;673;-68
2022/11/16 12:09:15;;;;;;;;;;;21.90;56.50;;;;;;1528632;76;936;-68
2022/11/16 12:11:30;;;;;;;;;;;21.80;56.40;;;;;;1538988;76;2233;-68
2022/11/16 12:13:39;;;;;;;;;;;21.80;56.40;;;;;;1528124;77;2003;-67
2022/11/16 12:15:52;;;;;;;;;;;21.80;56.40;;;;;;1519561;76;1267;-67
2022/11/16 12:17:55;;;;;;;;;;;21.80;56.40;;;;;;1533973;76;607;-67
2022/11/16 12:19:59;;;;;;;;;;;21.80;56.40;;;;;;1545519;76;745;-66
2022/11/16 12:22:08;;;;;;;;;;;21.80;56.40;;;;;;1534800;76;1149;-67
2022/11/16 12:24:28;;;;;;;;;;;21.80;56.40;;;;;;1529560;77;1661;-67
2022/11/16 12:26:32;;;;;;;;;;;21.80;56.40;;;;;;1531321;76;683;-67
2022/11/16 12:28:38;;;;;;;;;;;21.80;56.40;;;;;;1540388;76;694;-67
2022/11/16 12:30:44;;;;;;;;;;;21.80;56.40;;;;;;1533953;76;1866;-68
2022/11/16 12:32:51;;;;;;;;;;;21.80;56.40;;;;;;1532150;77;1933;-67
2022/11/16 12:35:10;;;;;;;;;;;21.80;56.40;;;;;;1546123;76;1195;-67
2022/11/16 12:37:19;;;;;;;;;;;21.80;56.40;;;;;;1535647;76;567;-68
2022/11/16 12:39:23;;;;;;;;;;;21.80;56.40;;;;;;1518592;76;960;-67
2022/11/16 12:41:43;;;;;;;;;;;21.90;56.50;;;;;;1527398;76;733;-67
2022/11/16 12:44:03;;;;;;;;;;;21.80;56.40;;;;;;1536756;76;655;-67
2022/11/16 12:46:12;;;;;;;;;;;21.80;56.40;;;;;;1535333;76;1221;-68
2022/11/16 12:48:16;;;;;;;;;;;21.80;56.40;;;;;;1531225;76;612;-68
2022/11/16 12:50:23;;;;;;;;;;;21.80;56.30;;;;;;1518940;76;1870;-68
2022/11/16 12:52:29;;;;;;;;;;;21.60;56.80;;;;;;1531564;76;1951;-68
2022/11/16 12:54:39;;;;;;;;;;;21.50;57.30;;;;;;1514154;76;1527;-68
2022/11/16 12:56:48;;;;;;;;;;;21.40;57.50;;;;;;1544154;76;1244;-68
2022/11/16 12:58:52;;;;;;;;;;;21.40;57.90;;;;;;1522087;76;1637;-69